sensor_id;sensor_type;location;lat;lon;timestamp;pressure;altitude;pressure_sealevel;temperature;humidity
43298;BME280;28892;55.640;37.532;2023-02-23T00:00:12;98567.88;;;-10.58;53.28
43298;BME280;28892;55.640;37.532;2023-02-23T00:02:57;98560.19;;;-10.58;53.10
43298;BME280;28892;55.640;37.532;2023-02-23T00:05:36;98553.75;;;-10.47;52.98
43298;BME280;28892;55.640;37.532;2023-02-23T00:08:02;98574.91;;;-11.04;53.51
43298;BME280;28892;55.640;37.532;2023-02-23T00:10:29;98570.84;;;-11.10;53.90
43298;BME280;28892;55.640;37.532;2023-02-23T00:12:56;98582.19;;;-10.95;54.04
43298;BME280;28892;55.640;37.532;2023-02-23T00:15:26;98584.69;;;-10.93;53.60
43298;BME280;28892;55.640;37.532;2023-02-23T00:17:53;98589.88;;;-10.95;53.66
43298;BME280;28892;55.640;37.532;2023-02-23T00:20:20;98594.09;;;-11.15;54.11
43298;BME280;28892;55.640;37.532;2023-02-23T00:22:55;98592.25;;;-10.90;53.84
43298;BME280;28892;55.640;37.532;2023-02-23T00:25:22;98585.53;;;-10.93;53.92
43298;BME280;28892;55.640;37.532;2023-02-23T00:27:48;98590.97;;;-10.80;53.38
43298;BME280;28892;55.640;37.532;2023-02-23T00:30:16;98589.22;;;-10.78;52.97
43298;BME280;28892;55.640;37.532;2023-02-23T00:32:46;98596.78;;;-10.97;53.49
43298;BME280;28892;55.640;37.532;2023-02-23T00:35:12;98600.63;;;-11.30;54.39
43298;BME280;28892;55.640;37.532;2023-02-23T00:38:14;98582.22;;;-11.17;54.15
43298;BME280;28892;55.640;37.532;2023-02-23T00:40:39;98607.00;;;-11.40;54.34
43298;BME280;28892;55.640;37.532;2023-02-23T00:43:05;98592.59;;;-11.20;53.64
43298;BME280;28892;55.640;37.532;2023-02-23T00:45:31;98608.41;;;-11.33;54.19
43298;BME280;28892;55.640;37.532;2023-02-23T00:47:58;98597.28;;;-11.10;53.38
43298;BME280;28892;55.640;37.532;2023-02-23T00:50:24;98602.22;;;-11.27;53.59
43298;BME280;28892;55.640;37.532;2023-02-23T00:52:52;98587.09;;;-11.56;54.36
43298;BME280;28892;55.640;37.532;2023-02-23T00:55:18;98588.59;;;-11.50;54.62
43298;BME280;28892;55.640;37.532;2023-02-23T00:57:44;98602.81;;;-11.43;54.35
43298;BME280;28892;55.640;37.532;2023-02-23T01:00:11;98607.41;;;-11.51;55.03
43298;BME280;28892;55.640;37.532;2023-02-23T01:02:47;98611.03;;;-11.57;55.16
43298;BME280;28892;55.640;37.532;2023-02-23T01:05:13;98613.84;;;-11.63;55.52
43298;BME280;28892;55.640;37.532;2023-02-23T01:07:39;98606.41;;;-11.47;55.23
43298;BME280;28892;55.640;37.532;2023-02-23T01:10:06;98612.22;;;-11.43;54.77
43298;BME280;28892;55.640;37.532;2023-02-23T01:12:48;98618.41;;;-11.49;55.23
43298;BME280;28892;55.640;37.532;2023-02-23T01:15:15;98631.56;;;-11.58;55.72
43298;BME280;28892;55.640;37.532;2023-02-23T01:17:42;98625.09;;;-11.45;55.06
43298;BME280;28892;55.640;37.532;2023-02-23T01:20:14;98623.09;;;-11.37;55.21
43298;BME280;28892;55.640;37.532;2023-02-23T01:22:45;98628.16;;;-11.59;55.45
43298;BME280;28892;55.640;37.532;2023-02-23T01:25:15;98614.72;;;-11.42;54.64
43298;BME280;28892;55.640;37.532;2023-02-23T01:27:42;98621.69;;;-11.68;55.29
43298;BME280;28892;55.640;37.532;2023-02-23T01:30:12;98641.25;;;-11.67;55.50
43298;BME280;28892;55.640;37.532;2023-02-23T01:32:40;98635.63;;;-11.53;54.73
43298;BME280;28892;55.640;37.532;2023-02-23T01:35:10;98635.53;;;-11.73;55.67
43298;BME280;28892;55.640;37.532;2023-02-23T01:37:41;98624.53;;;-11.75;55.75
43298;BME280;28892;55.640;37.532;2023-02-23T01:40:21;98642.31;;;-11.72;55.97
43298;BME280;28892;55.640;37.532;2023-02-23T01:43:10;98640.84;;;-11.56;55.53
43298;BME280;28892;55.640;37.532;2023-02-23T01:45:37;98639.41;;;-11.63;55.57
43298;BME280;28892;55.640;37.532;2023-02-23T01:48:14;98624.03;;;-11.39;54.30
43298;BME280;28892;55.640;37.532;2023-02-23T01:53:14;98635.03;;;-11.37;54.78
43298;BME280;28892;55.640;37.532;2023-02-23T01:55:42;98629.31;;;-11.44;54.23
43298;BME280;28892;55.640;37.532;2023-02-23T01:58:14;98633.44;;;-11.17;53.87
43298;BME280;28892;55.640;37.532;2023-02-23T02:00:42;98643.41;;;-11.32;54.33
43298;BME280;28892;55.640;37.532;2023-02-23T02:03:14;98636.19;;;-11.92;55.71
43298;BME280;28892;55.640;37.532;2023-02-23T02:05:42;98626.22;;;-12.00;55.65
43298;BME280;28892;55.640;37.532;2023-02-23T02:08:08;98647.06;;;-11.87;55.99
43298;BME280;28892;55.640;37.532;2023-02-23T02:10:36;98645.84;;;-11.76;55.66
43298;BME280;28892;55.640;37.532;2023-02-23T02:13:09;98644.63;;;-11.42;54.60
43298;BME280;28892;55.640;37.532;2023-02-23T02:18:38;98650.97;;;-11.76;55.44
43298;BME280;28892;55.640;37.532;2023-02-23T02:29:53;98662.66;;;-11.69;55.22
43298;BME280;28892;55.640;37.532;2023-02-23T02:39:14;98660.56;;;-11.58;54.48
43298;BME280;28892;55.640;37.532;2023-02-23T02:41:46;98679.78;;;-11.47;53.90
43298;BME280;28892;55.640;37.532;2023-02-23T02:44:26;98670.38;;;-11.71;54.08
43298;BME280;28892;55.640;37.532;2023-02-23T02:47:00;98676.47;;;-11.73;54.57
43298;BME280;28892;55.640;37.532;2023-02-23T02:49:33;98670.06;;;-11.85;54.35
43298;BME280;28892;55.640;37.532;2023-02-23T02:52:26;98669.91;;;-11.81;54.62
43298;BME280;28892;55.640;37.532;2023-02-23T02:55:00;98678.03;;;-11.95;54.79
43298;BME280;28892;55.640;37.532;2023-02-23T02:57:31;98671.94;;;-12.14;55.46
43298;BME280;28892;55.640;37.532;2023-02-23T02:59:57;98670.28;;;-11.91;54.73
43298;BME280;28892;55.640;37.532;2023-02-23T03:02:42;98659.38;;;-11.73;54.00
43298;BME280;28892;55.640;37.532;2023-02-23T03:05:49;98668.16;;;-12.04;55.03
43298;BME280;28892;55.640;37.532;2023-02-23T03:11:32;98675.66;;;-11.99;55.28
43298;BME280;28892;55.640;37.532;2023-02-23T03:14:38;98671.16;;;-12.16;55.49
43298;BME280;28892;55.640;37.532;2023-02-23T03:17:38;98677.69;;;-11.84;54.79
43298;BME280;28892;55.640;37.532;2023-02-23T03:20:25;98682.41;;;-11.73;54.35
43298;BME280;28892;55.640;37.532;2023-02-23T03:26:26;98676.81;;;-12.07;55.16
43298;BME280;28892;55.640;37.532;2023-02-23T03:29:24;98680.06;;;-12.03;55.20
43298;BME280;28892;55.640;37.532;2023-02-23T03:32:36;98676.38;;;-11.96;54.92
43298;BME280;28892;55.640;37.532;2023-02-23T03:35:38;98683.53;;;-12.56;56.50
43298;BME280;28892;55.640;37.532;2023-02-23T03:41:19;98695.88;;;-12.42;56.17
43298;BME280;28892;55.640;37.532;2023-02-23T03:44:18;98687.84;;;-12.06;55.17
43298;BME280;28892;55.640;37.532;2023-02-23T03:47:07;98699.56;;;-12.26;55.42
43298;BME280;28892;55.640;37.532;2023-02-23T03:49:53;98699.81;;;-12.07;54.73
43298;BME280;28892;55.640;37.532;2023-02-23T03:52:53;98699.91;;;-12.10;55.27
43298;BME280;28892;55.640;37.532;2023-02-23T03:55:43;98711.59;;;-12.28;54.81
43298;BME280;28892;55.640;37.532;2023-02-23T03:58:39;98708.00;;;-12.22;55.32
43298;BME280;28892;55.640;37.532;2023-02-23T04:01:27;98706.78;;;-12.12;54.73
43298;BME280;28892;55.640;37.532;2023-02-23T04:04:12;98701.22;;;-11.99;53.87
43298;BME280;28892;55.640;37.532;2023-02-23T04:06:58;98705.41;;;-12.21;54.90
43298;BME280;28892;55.640;37.532;2023-02-23T04:09:44;98700.84;;;-12.12;54.20
43298;BME280;28892;55.640;37.532;2023-02-23T04:12:36;98713.03;;;-12.46;55.34
43298;BME280;28892;55.640;37.532;2023-02-23T04:15:25;98721.38;;;-12.41;55.62
43298;BME280;28892;55.640;37.532;2023-02-23T04:17:52;98715.19;;;-12.33;55.07
43298;BME280;28892;55.640;37.532;2023-02-23T04:20:18;98711.78;;;-12.61;55.51
43298;BME280;28892;55.640;37.532;2023-02-23T04:22:45;98714.38;;;-12.63;55.69
43298;BME280;28892;55.640;37.532;2023-02-23T04:25:12;98723.31;;;-12.76;55.97
43298;BME280;28892;55.640;37.532;2023-02-23T04:27:39;98728.00;;;-12.89;56.71
43298;BME280;28892;55.640;37.532;2023-02-23T04:30:05;98713.69;;;-12.66;56.16
43298;BME280;28892;55.640;37.532;2023-02-23T04:32:31;98722.25;;;-12.42;55.40
43298;BME280;28892;55.640;37.532;2023-02-23T04:34:57;98720.69;;;-12.46;55.10
43298;BME280;28892;55.640;37.532;2023-02-23T04:37:23;98727.84;;;-12.56;55.14
43298;BME280;28892;55.640;37.532;2023-02-23T04:39:48;98712.28;;;-12.77;55.00
43298;BME280;28892;55.640;37.532;2023-02-23T04:42:17;98723.78;;;-12.36;54.47
43298;BME280;28892;55.640;37.532;2023-02-23T04:44:43;98718.31;;;-12.52;54.71
43298;BME280;28892;55.640;37.532;2023-02-23T04:47:10;98722.22;;;-12.67;55.17
43298;BME280;28892;55.640;37.532;2023-02-23T04:49:36;98728.53;;;-12.52;55.20
43298;BME280;28892;55.640;37.532;2023-02-23T04:52:02;98715.00;;;-12.81;55.24
43298;BME280;28892;55.640;37.532;2023-02-23T04:54:30;98729.22;;;-12.74;55.56
43298;BME280;28892;55.640;37.532;2023-02-23T04:56:56;98730.47;;;-12.87;55.86
43298;BME280;28892;55.640;37.532;2023-02-23T04:59:28;98722.38;;;-12.72;55.20
43298;BME280;28892;55.640;37.532;2023-02-23T05:01:54;98725.00;;;-12.75;55.26
43298;BME280;28892;55.640;37.532;2023-02-23T05:04:25;98723.91;;;-12.95;55.90
43298;BME280;28892;55.640;37.532;2023-02-23T05:06:54;98736.06;;;-12.47;54.94
43298;BME280;28892;55.640;37.532;2023-02-23T05:09:20;98736.00;;;-13.01;55.53
43298;BME280;28892;55.640;37.532;2023-02-23T05:11:49;98736.75;;;-12.98;56.26
43298;BME280;28892;55.640;37.532;2023-02-23T05:14:14;98747.00;;;-12.42;55.40
43298;BME280;28892;55.640;37.532;2023-02-23T05:16:40;98752.56;;;-12.58;55.39
43298;BME280;28892;55.640;37.532;2023-02-23T05:19:06;98756.09;;;-12.89;55.86
43298;BME280;28892;55.640;37.532;2023-02-23T05:21:32;98762.38;;;-12.44;55.17
43298;BME280;28892;55.640;37.532;2023-02-23T05:23:58;98761.75;;;-12.24;54.51
43298;BME280;28892;55.640;37.532;2023-02-23T05:26:24;98761.97;;;-12.31;54.95
43298;BME280;28892;55.640;37.532;2023-02-23T05:28:50;98755.47;;;-11.89;53.92
43298;BME280;28892;55.640;37.532;2023-02-23T05:31:16;98740.41;;;-11.97;54.14
43298;BME280;28892;55.640;37.532;2023-02-23T05:33:42;98744.13;;;-11.82;53.95
43298;BME280;28892;55.640;37.532;2023-02-23T05:36:10;98744.97;;;-11.56;53.64
43298;BME280;28892;55.640;37.532;2023-02-23T05:38:37;98746.03;;;-11.62;53.62
43298;BME280;28892;55.640;37.532;2023-02-23T05:41:14;98746.38;;;-11.98;54.02
43298;BME280;28892;55.640;37.532;2023-02-23T05:43:43;98760.06;;;-11.74;54.12
43298;BME280;28892;55.640;37.532;2023-02-23T05:46:22;98766.91;;;-11.74;53.98
43298;BME280;28892;55.640;37.532;2023-02-23T05:48:49;98760.00;;;-11.23;53.02
43298;BME280;28892;55.640;37.532;2023-02-23T05:51:20;98753.88;;;-11.19;52.91
43298;BME280;28892;55.640;37.532;2023-02-23T05:53:46;98771.03;;;-11.21;52.66
43298;BME280;28892;55.640;37.532;2023-02-23T05:56:14;98757.31;;;-11.20;52.98
43298;BME280;28892;55.640;37.532;2023-02-23T05:58:52;98753.06;;;-10.97;52.17
43298;BME280;28892;55.640;37.532;2023-02-23T06:01:26;98751.09;;;-10.46;52.07
43298;BME280;28892;55.640;37.532;2023-02-23T06:03:55;98763.88;;;-10.44;52.31
43298;BME280;28892;55.640;37.532;2023-02-23T06:06:21;98750.66;;;-10.56;52.47
43298;BME280;28892;55.640;37.532;2023-02-23T06:08:48;98765.69;;;-10.46;52.04
43298;BME280;28892;55.640;37.532;2023-02-23T06:11:17;98767.94;;;-10.18;52.47
43298;BME280;28892;55.640;37.532;2023-02-23T06:13:43;98769.06;;;-10.03;51.04
43298;BME280;28892;55.640;37.532;2023-02-23T06:16:09;98781.38;;;-9.70;50.96
43298;BME280;28892;55.640;37.532;2023-02-23T06:18:35;98773.66;;;-9.49;50.58
43298;BME280;28892;55.640;37.532;2023-02-23T06:21:07;98754.56;;;-9.62;50.25
43298;BME280;28892;55.640;37.532;2023-02-23T06:23:43;98786.06;;;-9.59;50.42
43298;BME280;28892;55.640;37.532;2023-02-23T06:26:10;98777.50;;;-9.38;49.70
43298;BME280;28892;55.640;37.532;2023-02-23T06:28:36;98770.91;;;-9.06;50.31
43298;BME280;28892;55.640;37.532;2023-02-23T06:31:05;98765.00;;;-8.89;49.70
43298;BME280;28892;55.640;37.532;2023-02-23T06:33:31;98772.66;;;-8.87;49.16
43298;BME280;28892;55.640;37.532;2023-02-23T06:35:57;98769.19;;;-9.24;48.47
43298;BME280;28892;55.640;37.532;2023-02-23T06:38:22;98766.00;;;-9.50;48.39
43298;BME280;28892;55.640;37.532;2023-02-23T06:40:48;98782.34;;;-9.32;49.21
43298;BME280;28892;55.640;37.532;2023-02-23T06:43:17;98768.53;;;-9.49;49.48
43298;BME280;28892;55.640;37.532;2023-02-23T06:45:45;98787.84;;;-9.61;49.49
43298;BME280;28892;55.640;37.532;2023-02-23T06:48:11;98787.53;;;-9.94;50.48
43298;BME280;28892;55.640;37.532;2023-02-23T06:50:36;98799.53;;;-9.95;49.97
43298;BME280;28892;55.640;37.532;2023-02-23T06:53:02;98797.50;;;-10.09;49.93
43298;BME280;28892;55.640;37.532;2023-02-23T06:55:30;98784.97;;;-9.94;50.02
43298;BME280;28892;55.640;37.532;2023-02-23T06:57:57;98780.94;;;-10.00;50.06
43298;BME280;28892;55.640;37.532;2023-02-23T07:00:24;98782.22;;;-9.90;49.88
43298;BME280;28892;55.640;37.532;2023-02-23T07:02:50;98805.16;;;-10.07;50.21
43298;BME280;28892;55.640;37.532;2023-02-23T07:05:16;98803.47;;;-10.52;51.62
43298;BME280;28892;55.640;37.532;2023-02-23T07:07:41;98787.59;;;-10.39;51.38
43298;BME280;28892;55.640;37.532;2023-02-23T07:10:11;98802.59;;;-10.07;50.66
43298;BME280;28892;55.640;37.532;2023-02-23T07:12:37;98801.88;;;-10.54;51.36
43298;BME280;28892;55.640;37.532;2023-02-23T07:15:04;98809.97;;;-10.65;52.46
43298;BME280;28892;55.640;37.532;2023-02-23T07:17:30;98812.25;;;-10.36;52.04
43298;BME280;28892;55.640;37.532;2023-02-23T07:19:56;98809.78;;;-10.38;51.96
43298;BME280;28892;55.640;37.532;2023-02-23T07:22:22;98809.66;;;-10.13;52.01
43298;BME280;28892;55.640;37.532;2023-02-23T07:24:56;98804.97;;;-10.03;51.91
43298;BME280;28892;55.640;37.532;2023-02-23T07:27:22;98812.75;;;-9.84;51.92
43298;BME280;28892;55.640;37.532;2023-02-23T07:29:47;98826.50;;;-9.43;51.14
43298;BME280;28892;55.640;37.532;2023-02-23T07:32:13;98812.22;;;-9.50;50.99
43298;BME280;28892;55.640;37.532;2023-02-23T07:34:39;98825.34;;;-9.77;52.08
43298;BME280;28892;55.640;37.532;2023-02-23T07:37:05;98820.78;;;-9.50;51.47
43298;BME280;28892;55.640;37.532;2023-02-23T07:39:30;98832.84;;;-9.31;51.35
43298;BME280;28892;55.640;37.532;2023-02-23T07:41:57;98813.97;;;-9.30;51.07
43298;BME280;28892;55.640;37.532;2023-02-23T07:44:22;98813.91;;;-9.49;51.47
43298;BME280;28892;55.640;37.532;2023-02-23T07:46:48;98832.72;;;-9.28;51.36
43298;BME280;28892;55.640;37.532;2023-02-23T07:49:17;98830.84;;;-9.24;51.65
43298;BME280;28892;55.640;37.532;2023-02-23T07:51:43;98838.34;;;-8.99;51.51
43298;BME280;28892;55.640;37.532;2023-02-23T07:54:12;98830.41;;;-9.34;51.87
43298;BME280;28892;55.640;37.532;2023-02-23T07:56:38;98834.22;;;-9.03;51.54
43298;BME280;28892;55.640;37.532;2023-02-23T07:59:03;98817.47;;;-9.12;51.36
43298;BME280;28892;55.640;37.532;2023-02-23T08:01:29;98816.06;;;-9.00;51.45
43298;BME280;28892;55.640;37.532;2023-02-23T08:03:55;98812.28;;;-8.91;51.46
43298;BME280;28892;55.640;37.532;2023-02-23T08:06:22;98817.34;;;-8.90;51.29
43298;BME280;28892;55.640;37.532;2023-02-23T08:08:48;98834.72;;;-8.95;51.65
43298;BME280;28892;55.640;37.532;2023-02-23T08:11:13;98828.00;;;-8.42;51.13
43298;BME280;28892;55.640;37.532;2023-02-23T08:13:40;98817.28;;;-8.69;51.13
43298;BME280;28892;55.640;37.532;2023-02-23T08:16:07;98824.22;;;-8.71;51.39
43298;BME280;28892;55.640;37.532;2023-02-23T08:18:33;98822.56;;;-8.35;51.21
43298;BME280;28892;55.640;37.532;2023-02-23T08:20:59;98814.16;;;-8.02;50.66
43298;BME280;28892;55.640;37.532;2023-02-23T08:23:28;98827.19;;;-7.70;49.99
43298;BME280;28892;55.640;37.532;2023-02-23T08:25:54;98828.94;;;-7.71;49.58
43298;BME280;28892;55.640;37.532;2023-02-23T08:28:22;98821.97;;;-7.68;49.52
43298;BME280;28892;55.640;37.532;2023-02-23T08:30:49;98818.47;;;-7.85;49.38
43298;BME280;28892;55.640;37.532;2023-02-23T08:33:15;98824.16;;;-7.61;49.64
43298;BME280;28892;55.640;37.532;2023-02-23T08:35:41;98829.88;;;-7.20;49.21
43298;BME280;28892;55.640;37.532;2023-02-23T08:38:07;98811.47;;;-4.82;46.48
43298;BME280;28892;55.640;37.532;2023-02-23T08:40:32;98819.19;;;-2.43;42.00
43298;BME280;28892;55.640;37.532;2023-02-23T08:42:58;98809.72;;;-0.78;39.11
43298;BME280;28892;55.640;37.532;2023-02-23T08:45:24;98821.94;;;-0.23;35.94
43298;BME280;28892;55.640;37.532;2023-02-23T08:47:49;98808.47;;;-0.28;35.76
43298;BME280;28892;55.640;37.532;2023-02-23T08:50:15;98821.22;;;0.40;34.34
43298;BME280;28892;55.640;37.532;2023-02-23T08:52:41;98829.66;;;0.96;35.76
43298;BME280;28892;55.640;37.532;2023-02-23T08:55:07;98833.84;;;1.40;34.10
43298;BME280;28892;55.640;37.532;2023-02-23T08:57:36;98826.34;;;0.94;32.98
43298;BME280;28892;55.640;37.532;2023-02-23T09:00:03;98839.44;;;1.35;33.56
43298;BME280;28892;55.640;37.532;2023-02-23T09:02:37;98842.63;;;2.00;34.07
43298;BME280;28892;55.640;37.532;2023-02-23T09:05:02;98837.72;;;2.06;32.01
43298;BME280;28892;55.640;37.532;2023-02-23T09:07:29;98842.66;;;2.09;32.36
43298;BME280;28892;55.640;37.532;2023-02-23T09:09:55;98844.44;;;2.29;32.70
43298;BME280;28892;55.640;37.532;2023-02-23T09:12:22;98830.81;;;2.45;32.07
43298;BME280;28892;55.640;37.532;2023-02-23T09:14:48;98841.97;;;2.07;32.43
43298;BME280;28892;55.640;37.532;2023-02-23T09:17:16;98837.47;;;1.18;32.25
43298;BME280;28892;55.640;37.532;2023-02-23T09:19:42;98832.06;;;1.41;33.39
43298;BME280;28892;55.640;37.532;2023-02-23T09:22:08;98842.09;;;2.16;33.89
43298;BME280;28892;55.640;37.532;2023-02-23T09:24:33;98842.31;;;1.63;31.62
43298;BME280;28892;55.640;37.532;2023-02-23T09:27:00;98837.09;;;1.73;31.95
43298;BME280;28892;55.640;37.532;2023-02-23T09:29:28;98842.31;;;-0.17;32.94
43298;BME280;28892;55.640;37.532;2023-02-23T09:31:54;98842.75;;;-0.11;33.98
43298;BME280;28892;55.640;37.532;2023-02-23T09:34:23;98843.03;;;0.72;34.15
43298;BME280;28892;55.640;37.532;2023-02-23T09:36:49;98828.56;;;1.20;34.40
43298;BME280;28892;55.640;37.532;2023-02-23T09:39:16;98828.72;;;1.89;33.49
43298;BME280;28892;55.640;37.532;2023-02-23T09:44:56;98827.63;;;1.92;33.58
43298;BME280;28892;55.640;37.532;2023-02-23T09:47:33;98824.91;;;-0.16;33.45
43298;BME280;28892;55.640;37.532;2023-02-23T09:50:13;98830.28;;;-0.40;34.72
43298;BME280;28892;55.640;37.532;2023-02-23T09:52:44;98831.34;;;0.34;34.79
43298;BME280;28892;55.640;37.532;2023-02-23T09:55:13;98827.44;;;-0.49;34.21
43298;BME280;28892;55.640;37.532;2023-02-23T09:57:43;98826.13;;;-0.32;35.43
43298;BME280;28892;55.640;37.532;2023-02-23T10:00:18;98822.41;;;0.15;35.05
43298;BME280;28892;55.640;37.532;2023-02-23T10:05:40;98816.47;;;1.29;34.19
43298;BME280;28892;55.640;37.532;2023-02-23T10:08:40;98823.38;;;2.01;32.41
43298;BME280;28892;55.640;37.532;2023-02-23T10:11:56;98814.59;;;1.41;32.80
43298;BME280;28892;55.640;37.532;2023-02-23T10:14:29;98812.44;;;1.15;32.01
43298;BME280;28892;55.640;37.532;2023-02-23T10:22:44;98809.59;;;1.89;32.62
43298;BME280;28892;55.640;37.532;2023-02-23T10:25:26;98810.97;;;0.91;33.89
43298;BME280;28892;55.640;37.532;2023-02-23T10:27:54;98821.56;;;1.81;33.32
43298;BME280;28892;55.640;37.532;2023-02-23T10:30:32;98804.50;;;2.07;32.10
43298;BME280;28892;55.640;37.532;2023-02-23T10:35:54;98813.53;;;1.73;31.46
43298;BME280;28892;55.640;37.532;2023-02-23T10:38:25;98810.72;;;1.96;31.84
43298;BME280;28892;55.640;37.532;2023-02-23T10:44:30;98806.31;;;3.31;31.06
43298;BME280;28892;55.640;37.532;2023-02-23T10:47:02;98806.84;;;2.97;30.83
43298;BME280;28892;55.640;37.532;2023-02-23T10:49:44;98797.38;;;2.86;30.20
43298;BME280;28892;55.640;37.532;2023-02-23T10:52:53;98813.38;;;3.77;31.11
43298;BME280;28892;55.640;37.532;2023-02-23T10:55:26;98801.50;;;3.27;30.23
43298;BME280;28892;55.640;37.532;2023-02-23T10:58:05;98806.88;;;2.87;29.38
43298;BME280;28892;55.640;37.532;2023-02-23T11:00:37;98802.16;;;2.14;30.38
43298;BME280;28892;55.640;37.532;2023-02-23T11:03:27;98816.69;;;2.85;31.60
43298;BME280;28892;55.640;37.532;2023-02-23T11:06:05;98804.63;;;2.92;31.58
43298;BME280;28892;55.640;37.532;2023-02-23T11:08:36;98813.66;;;2.80;30.77
43298;BME280;28892;55.640;37.532;2023-02-23T11:11:16;98809.66;;;2.76;30.64
43298;BME280;28892;55.640;37.532;2023-02-23T11:13:46;98809.88;;;2.92;30.22
43298;BME280;28892;55.640;37.532;2023-02-23T11:16:18;98801.69;;;3.43;30.22
43298;BME280;28892;55.640;37.532;2023-02-23T11:18:58;98800.47;;;4.02;30.19
43298;BME280;28892;55.640;37.532;2023-02-23T11:21:36;98795.75;;;4.24;29.21
43298;BME280;28892;55.640;37.532;2023-02-23T11:26:58;98790.56;;;3.77;28.35
43298;BME280;28892;55.640;37.532;2023-02-23T11:29:39;98798.28;;;4.15;29.45
43298;BME280;28892;55.640;37.532;2023-02-23T11:32:19;98806.31;;;3.77;28.14
43298;BME280;28892;55.640;37.532;2023-02-23T11:35:24;98785.53;;;3.84;28.70
43298;BME280;28892;55.640;37.532;2023-02-23T11:37:52;98800.78;;;3.25;29.37
43298;BME280;28892;55.640;37.532;2023-02-23T11:45:24;98804.50;;;3.32;29.67
43298;BME280;28892;55.640;37.532;2023-02-23T11:47:53;98791.19;;;3.71;28.82
43298;BME280;28892;55.640;37.532;2023-02-23T11:50:22;98799.34;;;4.04;28.65
43298;BME280;28892;55.640;37.532;2023-02-23T11:53:43;98797.75;;;3.29;28.37
43298;BME280;28892;55.640;37.532;2023-02-23T11:56:19;98783.31;;;2.87;30.06
43298;BME280;28892;55.640;37.532;2023-02-23T11:59:00;98790.47;;;2.85;29.68
43298;BME280;28892;55.640;37.532;2023-02-23T12:01:42;98792.16;;;3.70;29.21
43298;BME280;28892;55.640;37.532;2023-02-23T12:04:24;98784.31;;;3.60;28.87
43298;BME280;28892;55.640;37.532;2023-02-23T12:07:31;98798.66;;;3.66;28.47
43298;BME280;28892;55.640;37.532;2023-02-23T12:10:06;98788.88;;;3.40;28.29
43298;BME280;28892;55.640;37.532;2023-02-23T12:12:43;98786.47;;;3.19;28.06
43298;BME280;28892;55.640;37.532;2023-02-23T12:15:49;98787.81;;;2.95;28.13
43298;BME280;28892;55.640;37.532;2023-02-23T12:21:38;98797.16;;;3.07;28.52
43298;BME280;28892;55.640;37.532;2023-02-23T12:30:45;98777.28;;;2.77;29.90
43298;BME280;28892;55.640;37.532;2023-02-23T12:38:55;98781.34;;;3.27;29.71
43298;BME280;28892;55.640;37.532;2023-02-23T12:41:37;98786.25;;;1.46;30.06
43298;BME280;28892;55.640;37.532;2023-02-23T12:44:18;98797.56;;;1.47;30.82
43298;BME280;28892;55.640;37.532;2023-02-23T12:46:49;98785.88;;;1.61;30.80
43298;BME280;28892;55.640;37.532;2023-02-23T12:49:55;98797.44;;;1.68;30.02
43298;BME280;28892;55.640;37.532;2023-02-23T12:52:31;98789.28;;;0.48;31.15
43298;BME280;28892;55.640;37.532;2023-02-23T12:54:59;98794.81;;;0.76;31.58
43298;BME280;28892;55.640;37.532;2023-02-23T12:57:37;98801.72;;;0.56;31.23
43298;BME280;28892;55.640;37.532;2023-02-23T13:00:39;98788.00;;;0.64;32.18
43298;BME280;28892;55.640;37.532;2023-02-23T13:05:57;98800.34;;;0.19;32.19
43298;BME280;28892;55.640;37.532;2023-02-23T13:08:46;98796.53;;;0.02;33.20
43298;BME280;28892;55.640;37.532;2023-02-23T13:14:04;98784.19;;;-0.40;33.43
43298;BME280;28892;55.640;37.532;2023-02-23T13:16:48;98798.16;;;-0.41;34.36
43298;BME280;28892;55.640;37.532;2023-02-23T13:24:46;98795.53;;;-1.08;35.10
43298;BME280;28892;55.640;37.532;2023-02-23T13:29:50;98790.69;;;-1.01;35.39
43298;BME280;28892;55.640;37.532;2023-02-23T13:32:21;98799.63;;;-1.87;36.83
43298;BME280;28892;55.640;37.532;2023-02-23T13:34:55;98801.16;;;-1.84;37.59
43298;BME280;28892;55.640;37.532;2023-02-23T13:37:23;98791.81;;;-1.28;36.07
43298;BME280;28892;55.640;37.532;2023-02-23T13:40:35;98811.81;;;-1.87;36.60
43298;BME280;28892;55.640;37.532;2023-02-23T13:43:31;98800.41;;;-2.22;37.53
43298;BME280;28892;55.640;37.532;2023-02-23T13:46:12;98807.06;;;-3.18;39.10
43298;BME280;28892;55.640;37.532;2023-02-23T13:51:22;98816.28;;;-3.53;40.48
43298;BME280;28892;55.640;37.532;2023-02-23T13:56:24;98802.81;;;-3.45;39.89
43298;BME280;28892;55.640;37.532;2023-02-23T13:59:03;98796.50;;;-3.41;40.34
43298;BME280;28892;55.640;37.532;2023-02-23T14:01:32;98798.34;;;-3.43;39.98
43298;BME280;28892;55.640;37.532;2023-02-23T14:04:03;98798.56;;;-3.59;40.39
43298;BME280;28892;55.640;37.532;2023-02-23T14:06:33;98806.88;;;-3.41;40.33
43298;BME280;28892;55.640;37.532;2023-02-23T14:09:23;98808.81;;;-3.58;40.37
43298;BME280;28892;55.640;37.532;2023-02-23T14:12:00;98800.31;;;-3.21;39.56
43298;BME280;28892;55.640;37.532;2023-02-23T14:20:11;98796.38;;;-3.27;39.25
43298;BME280;28892;55.640;37.532;2023-02-23T14:23:13;98792.97;;;-3.27;39.46
43298;BME280;28892;55.640;37.532;2023-02-23T14:25:44;98808.53;;;-3.27;39.43
43298;BME280;28892;55.640;37.532;2023-02-23T14:31:01;98793.47;;;-3.48;39.81
43298;BME280;28892;55.640;37.532;2023-02-23T14:33:58;98788.69;;;-3.67;39.83
43298;BME280;28892;55.640;37.532;2023-02-23T14:39:02;98783.38;;;-3.91;40.02
43298;BME280;28892;55.640;37.532;2023-02-23T14:47:05;98797.63;;;-4.12;40.48
43298;BME280;28892;55.640;37.532;2023-02-23T14:49:35;98780.66;;;-4.30;40.83
43298;BME280;28892;55.640;37.532;2023-02-23T14:52:07;98779.22;;;-4.22;40.64
43298;BME280;28892;55.640;37.532;2023-02-23T14:54:38;98778.41;;;-4.50;41.21
43298;BME280;28892;55.640;37.532;2023-02-23T14:57:27;98779.72;;;-4.57;41.28
43298;BME280;28892;55.640;37.532;2023-02-23T15:00:27;98773.63;;;-4.56;41.33
43298;BME280;28892;55.640;37.532;2023-02-23T15:03:11;98769.50;;;-4.73;41.38
43298;BME280;28892;55.640;37.532;2023-02-23T15:05:47;98770.84;;;-5.09;42.34